createdAt,value
2023-03-22T00:01:28.774Z,99754.19
2023-03-22T00:03:56.830Z,99752.91
2023-03-22T00:06:25.764Z,99743.84
2023-03-22T00:08:55.590Z,99733.16
2023-03-22T00:11:25.928Z,99729.59
2023-03-22T00:13:55.006Z,99730.13
2023-03-22T00:16:23.468Z,99731.41
2023-03-22T00:18:51.943Z,99723.41
2023-03-22T00:21:20.167Z,99723.69
2023-03-22T00:23:48.295Z,99723.28
2023-03-22T00:26:17.597Z,99713.25
2023-03-22T00:28:45.670Z,99706.41
2023-03-22T00:31:13.693Z,99707.09
2023-03-22T00:33:41.709Z,99702.09
2023-03-22T00:36:12.196Z,99698.16
2023-03-22T00:38:44.460Z,99694.88
2023-03-22T00:41:14.807Z,99687.00
2023-03-22T00:43:44.629Z,99681.00
2023-03-22T00:46:13.817Z,99670.84
2023-03-22T00:48:41.889Z,99667.56
2023-03-22T00:51:10.131Z,99664.91
2023-03-22T00:53:41.108Z,99667.03
2023-03-22T00:56:14.065Z,99657.50
2023-03-22T00:58:44.136Z,99653.38
2023-03-22T01:01:14.117Z,99656.88
2023-03-22T01:03:43.843Z,99652.53
2023-03-22T01:06:12.619Z,99643.44
2023-03-22T01:08:40.578Z,99648.06
2023-03-22T01:11:09.312Z,99640.00
2023-03-22T01:13:38.531Z,99642.75
2023-03-22T01:16:09.686Z,99638.56
2023-03-22T01:18:38.078Z,99632.50
2023-03-22T01:21:07.062Z,99628.16
2023-03-22T01:23:35.627Z,99622.84
2023-03-22T01:26:03.965Z,99617.25
2023-03-22T01:28:31.969Z,99620.06
2023-03-22T01:31:03.238Z,99610.63
2023-03-22T01:33:32.686Z,99605.31
2023-03-22T01:36:00.713Z,99601.00
2023-03-22T01:38:28.852Z,99588.72
2023-03-22T01:40:57.262Z,99595.47
2023-03-22T01:43:25.521Z,99585.66
2023-03-22T01:45:54.345Z,99586.06
2023-03-22T01:48:27.451Z,99592.75
2023-03-22T01:51:09.021Z,99586.06
2023-03-22T01:53:41.101Z,99587.47
2023-03-22T01:56:10.918Z,99592.06
2023-03-22T01:58:40.741Z,99582.56
2023-03-22T02:01:11.119Z,99599.06
2023-03-22T02:03:48.998Z,99591.44
2023-03-22T02:06:18.947Z,99589.38
2023-03-22T02:08:47.059Z,99595.50
2023-03-22T02:11:17.906Z,99582.50
2023-03-22T02:14:06.527Z,99582.50
2023-03-22T02:16:44.651Z,99590.88
2023-03-22T02:19:54.793Z,99580.31
2023-03-22T02:22:53.473Z,99586.44
2023-03-22T02:25:56.766Z,99578.25
2023-03-22T02:28:41.079Z,99579.63
2023-03-22T02:31:24.796Z,99580.03
2023-03-22T02:34:28.752Z,99571.66
2023-03-22T02:37:18.818Z,99571.94
2023-03-22T02:39:54.144Z,99574.59
2023-03-22T02:42:37.077Z,99570.75
2023-03-22T02:45:12.360Z,99566.25
2023-03-22T02:47:43.556Z,99568.78
2023-03-22T02:50:17.411Z,99573.78
2023-03-22T02:52:51.138Z,99576.28
2023-03-22T02:55:25.280Z,99566.56
2023-03-22T02:57:57.553Z,99571.91
2023-03-22T03:00:27.206Z,99564.06
2023-03-22T03:03:00.116Z,99564.09
2023-03-22T03:05:31.881Z,99565.34
2023-03-22T03:08:03.808Z,99572.19
2023-03-22T03:10:34.484Z,99567.56
2023-03-22T03:13:02.630Z,99563.38
2023-03-22T03:15:31.156Z,99564.09
2023-03-22T03:18:18.566Z,99559.88
2023-03-22T03:21:00.349Z,99557.47
2023-03-22T03:23:39.181Z,99551.06
2023-03-22T03:26:17.499Z,99553.28
2023-03-22T03:28:52.926Z,99543.09
2023-03-22T03:31:32.048Z,99545.47
2023-03-22T03:34:08.941Z,99543.38
2023-03-22T03:36:41.036Z,99542.97
2023-03-22T03:39:13.496Z,99548.97
2023-03-22T03:41:46.215Z,99544.19
2023-03-22T03:44:15.556Z,99537.19
2023-03-22T03:46:45.421Z,99542.88
2023-03-22T03:49:15.390Z,99542.59
2023-03-22T03:51:49.441Z,99540.94
2023-03-22T03:54:17.792Z,99545.03
2023-03-22T03:56:48.594Z,99536.53
2023-03-22T03:59:17.040Z,99543.53
2023-03-22T04:01:50.345Z,99532.06
2023-03-22T04:04:26.438Z,99541.25
2023-03-22T04:06:56.844Z,99536.47
2023-03-22T04:09:26.980Z,99522.16
2023-03-22T04:11:57.198Z,99516.72
2023-03-22T04:14:26.284Z,99521.03
2023-03-22T04:16:55.305Z,99527.19
2023-03-22T04:19:24.083Z,99522.47
2023-03-22T04:21:53.236Z,99529.34
2023-03-22T04:24:21.611Z,99525.34
2023-03-22T04:26:49.767Z,99529.97
2023-03-22T04:29:19.325Z,99523.00
2023-03-22T04:31:47.308Z,99511.78
2023-03-22T04:34:15.255Z,99515.28
2023-03-22T04:36:45.249Z,99507.03
2023-03-22T04:39:13.944Z,99508.84
2023-03-22T04:41:41.939Z,99517.22
2023-03-22T04:44:09.932Z,99506.59
2023-03-22T04:46:39.634Z,99503.94
2023-03-22T04:49:07.969Z,99510.09
2023-03-22T04:51:35.989Z,99513.44
2023-03-22T04:54:04.024Z,99504.50
2023-03-22T04:56:31.962Z,99510.50
2023-03-22T04:59:00.132Z,99509.63
2023-03-22T05:01:28.304Z,99516.47
2023-03-22T05:03:57.630Z,99509.63
2023-03-22T05:06:25.580Z,99515.38
2023-03-22T05:08:53.638Z,99522.22
2023-03-22T05:11:22.027Z,99514.66
2023-03-22T05:13:50.009Z,99520.09
2023-03-22T05:16:18.013Z,99517.78
2023-03-22T05:18:45.991Z,99508.00
2023-03-22T05:21:16.926Z,99506.28
2023-03-22T05:23:46.273Z,99507.13
2023-03-22T05:26:15.841Z,99508.38
2023-03-22T05:28:44.689Z,99499.97
2023-03-22T05:31:14.841Z,99505.44
2023-03-22T05:33:42.942Z,99510.47
2023-03-22T05:36:12.412Z,99504.00
2023-03-22T05:38:41.808Z,99508.78
2023-03-22T05:41:10.652Z,99502.34
2023-03-22T05:43:38.890Z,99510.09
2023-03-22T05:46:07.873Z,99507.72
2023-03-22T05:48:36.056Z,99504.59
2023-03-22T05:51:06.676Z,99513.25
2023-03-22T05:53:34.615Z,99503.72
2023-03-22T05:56:04.330Z,99512.34
2023-03-22T05:58:33.707Z,99509.91
2023-03-22T06:01:07.437Z,99512.13
2023-03-22T06:03:35.575Z,99501.31
2023-03-22T06:06:06.786Z,99505.78
2023-03-22T06:08:35.870Z,99506.78
2023-03-22T06:11:06.625Z,99492.84
2023-03-22T06:13:34.686Z,99510.00
2023-03-22T06:16:03.647Z,99506.47
2023-03-22T06:18:33.049Z,99511.59
2023-03-22T06:21:01.332Z,99510.47
2023-03-22T06:23:29.586Z,99511.59
2023-03-22T06:25:57.768Z,99506.56
2023-03-22T06:28:29.838Z,99515.09
2023-03-22T06:30:58.111Z,99517.13
2023-03-22T06:33:26.159Z,99505.88
2023-03-22T06:35:54.155Z,99513.34
2023-03-22T06:38:22.103Z,99508.31
2023-03-22T06:40:50.024Z,99512.88
2023-03-22T06:43:18.019Z,99511.03
2023-03-22T06:45:49.195Z,99506.81
2023-03-22T06:48:17.326Z,99512.97
2023-03-22T06:50:48.339Z,99506.56
2023-03-22T06:53:16.298Z,99499.56
2023-03-22T06:55:44.273Z,99502.19
2023-03-22T06:58:12.462Z,99497.41
2023-03-22T07:00:40.676Z,99490.09
2023-03-22T07:03:13.170Z,99484.63
2023-03-22T07:05:41.143Z,99484.97
2023-03-22T07:08:09.246Z,99483.75
2023-03-22T07:10:37.829Z,99474.00
2023-03-22T07:13:06.531Z,99481.00
2023-03-22T07:15:35.213Z,99472.47
2023-03-22T07:18:03.895Z,99469.44
2023-03-22T07:20:36.918Z,99485.47
2023-03-22T07:23:05.266Z,99476.63
2023-03-22T07:25:33.273Z,99474.63
2023-03-22T07:28:01.427Z,99479.81
2023-03-22T07:30:29.566Z,99475.59
2023-03-22T07:32:57.508Z,99469.13
2023-03-22T07:35:26.968Z,99476.09
2023-03-22T07:37:56.533Z,99467.25
2023-03-22T07:40:24.917Z,99467.66
2023-03-22T07:42:55.423Z,99457.59
2023-03-22T07:45:24.504Z,99459.38
2023-03-22T07:47:53.009Z,99455.66
2023-03-22T07:50:21.380Z,99455.91
2023-03-22T07:52:49.341Z,99465.09
2023-03-22T07:55:18.768Z,99463.94
2023-03-22T07:57:46.841Z,99458.00
2023-03-22T08:00:15.705Z,99466.09
2023-03-22T08:02:46.026Z,99461.81
2023-03-22T08:05:14.127Z,99456.19
2023-03-22T08:07:44.714Z,99455.63
2023-03-22T08:10:16.044Z,99456.81
2023-03-22T08:12:45.550Z,99466.44
2023-03-22T08:15:13.528Z,99466.00
2023-03-22T08:17:41.486Z,99452.25
2023-03-22T08:20:10.747Z,99444.84
2023-03-22T08:22:38.660Z,99459.91
2023-03-22T08:25:07.384Z,99457.13
2023-03-22T08:27:35.471Z,99461.09
2023-03-22T08:30:05.949Z,99454.41
2023-03-22T08:32:35.101Z,99451.72
2023-03-22T08:35:03.160Z,99453.69
2023-03-22T08:37:31.236Z,99451.72
2023-03-22T08:39:59.679Z,99447.56
2023-03-22T08:42:27.702Z,99442.22
2023-03-22T08:44:55.764Z,99448.03
2023-03-22T08:47:25.101Z,99443.38
2023-03-22T08:49:53.072Z,99447.50
2023-03-22T08:52:21.101Z,99443.63
2023-03-22T08:54:49.222Z,99440.38
2023-03-22T08:57:17.212Z,99445.31
2023-03-22T08:59:45.357Z,99446.78
2023-03-22T09:02:13.468Z,99433.34
2023-03-22T09:04:42.891Z,99442.06
2023-03-22T09:07:11.125Z,99437.94
2023-03-22T09:09:39.215Z,99433.59
2023-03-22T09:12:07.659Z,99438.56
2023-03-22T09:14:35.756Z,99429.44
2023-03-22T09:17:03.936Z,99438.78
2023-03-22T09:19:32.555Z,99436.91
2023-03-22T09:22:02.141Z,99449.34
2023-03-22T09:24:30.074Z,99450.63
2023-03-22T09:26:59.213Z,99452.28
2023-03-22T09:29:27.197Z,99452.69
2023-03-22T09:31:55.171Z,99451.00
2023-03-22T09:34:23.321Z,99452.38
2023-03-22T09:36:55.767Z,99456.72
2023-03-22T09:39:28.843Z,99454.31
2023-03-22T09:42:00.671Z,99460.72
2023-03-22T09:44:33.468Z,99454.13
2023-03-22T09:47:05.370Z,99459.69
2023-03-22T09:49:52.507Z,99458.09
2023-03-22T09:52:21.682Z,99461.47
2023-03-22T09:54:53.107Z,99443.88
2023-03-22T09:57:28.604Z,99452.88
2023-03-22T10:00:08.953Z,99441.06
2023-03-22T10:02:48.082Z,99439.56
2023-03-22T10:05:26.133Z,99443.16
2023-03-22T10:08:16.605Z,99440.44
2023-03-22T10:10:52.849Z,99446.16
2023-03-22T10:13:27.212Z,99435.31
2023-03-22T10:15:59.186Z,99441.22
2023-03-22T10:18:31.373Z,99444.66
2023-03-22T10:21:02.699Z,99447.97
2023-03-22T10:23:36.098Z,99448.34
2023-03-22T10:26:07.680Z,99447.50
2023-03-22T10:28:40.748Z,99461.44
2023-03-22T10:31:17.600Z,99456.00
2023-03-22T14:01:29.870Z,99331.22
2023-03-22T14:04:03.480Z,99323.97
2023-03-22T14:06:33.866Z,99326.75
2023-03-22T14:09:10.644Z,99314.47
2023-03-22T14:11:44.376Z,99327.59
2023-03-22T14:14:16.276Z,99330.78
2023-03-22T14:16:49.981Z,99327.09
2023-03-22T14:19:21.466Z,99325.28
